Aérodrome :
LOGIN :

S'inscrire | Disclaimer

   EN    FR    IT 

 










Légende :    VFR   VFR Marginal   IFR   IFR Intensif   IFR Très Intensif
Visi : 
Plafond : 
>= 8 km
>= 3000ft
5 à 8 km
1000 à 3000 ft
1500m à 5 km
500 à 1000 ft
800 à 1500m
200 à 500 ft
< 800m
< 200 ft
Symboles :   Orages  Brouillard  Fortes neiges  Fortes précipitations  Vent > 20 kt
SIGMETs :   Divers  Orages  Givrage  Turbulence  Onde Orograph.  Cendres Volcan.






- Altitude de l'aérodrome : 485 ft
- Code IATA : QSA


LELL - Sabadell

DERNIER METAR :
  • 042130Z AUTO 00000KT CAVOK 16/11 Q1005

METARs EXPIRÉS :
  • 042100Z AUTO 02003KT 330V070 CAVOK 16/11 Q1005
  • 042030Z AUTO 02005KT 330V060 CAVOK 16/11 Q1004
  • 042000Z AUTO 04005KT 350V080 9999 SCT067 16/11 Q1004
  • 041930Z AUTO 04007KT 9999 FEW070 16/11 Q1003
  • 041900Z AUTO 03009KT 350V110 9999 BKN065 17/11 Q1003
  • 041830Z AUTO 04010KT 360V080 9999 BKN067 19/13 Q1002

TAF AMD TAF LELL
Valide du 04 à 17h jusqu'au 05 à 15h UTC


041724Z 0417/0515 17006KT 9999 FEW030 TX29/0512Z TN12/0506Z
TEMPO 0417/0420 4000 TSRA FEW030CB
BECMG 0417/0419 VRB04KT
BECMG 0504/0506 30015KT



MET'MAP, la Météo Aéronautique d'un coup d'oeil ! - Copyright ORBIFLY Décembre 2007 - Disclaimer

ORBIFLY MET'MAP TEAM :

Programmation & Développement : Alexandra Zaïnal
Sur une idée originale de : Baudouin d'Aumeries
Assistance à la programmation : Marc-Olivier Méhu
Soutien technique & logistique : Manuel Goepfert

Contact : metmap@orbifly.com




SOURCES & CREDITS :

   NOAA